Time;durP1;ratioP1;P1;durP2;ratioP2;P2;SDS_P1;SDS_P2;PMS_P1;PMS_P2;Temp;Humidity;BMP_temperature;BMP_pressure;BME280_temperature;BME280_humidity;BME280_pressure;Samples;Min_cycle;Max_cycle;Signal;HPM_P1;HPM_P2
2023/12/25 00:01:51;;;;;;;153.70;146.68;;;;;;;;;;5092434;28;20806;-87
2023/12/25 00:04:17;;;;;;;160.52;153.57;;;;;;;;;;5092016;28;20506;-88
2023/12/25 00:06:45;;;;;;;143.07;136.83;;;;;;;;;;5092101;28;20439;-87
2023/12/25 00:09:12;;;;;;;137.80;131.77;;;;;;;;;;5092102;28;20410;-87
2023/12/25 00:11:38;;;;;;;162.10;155.00;;;;;;;;;;5092198;28;20405;-88
2023/12/25 00:14:05;;;;;;;152.75;145.73;;;;;;;;;;5095514;28;20428;-88
2023/12/25 00:16:31;;;;;;;169.75;162.55;;;;;;;;;;5112162;28;20408;-87
2023/12/25 00:18:58;;;;;;;152.23;145.57;;;;;;;;;;5112678;28;20475;-88
2023/12/25 00:21:26;;;;;;;157.52;150.40;;;;;;;;;;5101886;28;20438;-87
2023/12/25 00:23:54;;;;;;;152.80;146.07;;;;;;;;;;5092077;28;20401;-88
2023/12/25 00:26:21;;;;;;;139.40;132.57;;;;;;;;;;5091962;28;20504;-88
2023/12/25 00:28:47;;;;;;;156.27;149.50;;;;;;;;;;5091929;28;20406;-88
2023/12/25 00:31:14;;;;;;;149.83;143.57;;;;;;;;;;5091402;28;20850;-87
2023/12/25 00:33:40;;;;;;;144.43;138.15;;;;;;;;;;5091726;28;20417;-88
2023/12/25 00:36:07;;;;;;;141.52;134.30;;;;;;;;;;5104736;28;20788;-87
2023/12/25 00:38:34;;;;;;;139.60;133.10;;;;;;;;;;5108953;28;20535;-87
2023/12/25 00:41:02;;;;;;;150.98;143.43;;;;;;;;;;5111128;28;20454;-87
2023/12/25 00:43:28;;;;;;;141.75;134.70;;;;;;;;;;5111832;28;20454;-87
2023/12/25 00:45:55;;;;;;;146.90;140.05;;;;;;;;;;5112023;28;20462;-88
2023/12/25 00:48:21;;;;;;;139.70;132.68;;;;;;;;;;5111876;28;20396;-87
2023/12/25 00:50:48;;;;;;;156.00;149.03;;;;;;;;;;5094110;28;20405;-87
2023/12/25 00:53:14;;;;;;;151.18;144.15;;;;;;;;;;5091601;28;20491;-87
2023/12/25 00:55:41;;;;;;;138.38;132.25;;;;;;;;;;5091387;28;20401;-87
2023/12/25 00:58:11;;;;;;;134.07;128.23;;;;;;;;;;5092704;28;20821;-87
2023/12/25 01:00:40;;;;;;;129.03;123.43;;;;;;;;;;5093821;28;20770;-87
2023/12/25 01:03:06;;;;;;;139.50;134.13;;;;;;;;;;5112018;28;20488;-87
2023/12/25 01:05:33;;;;;;;149.33;143.77;;;;;;;;;;5101051;28;20451;-87
2023/12/25 01:07:59;;;;;;;144.88;139.18;;;;;;;;;;5092160;28;20409;-87
2023/12/25 01:10:26;;;;;;;147.85;141.85;;;;;;;;;;5095023;28;20802;-87
2023/12/25 01:12:52;;;;;;;133.05;127.85;;;;;;;;;;5094942;28;20413;-87
2023/12/25 01:15:20;;;;;;;134.67;129.37;;;;;;;;;;5094893;28;20405;-87
2023/12/25 01:17:47;;;;;;;137.55;131.85;;;;;;;;;;5110343;28;20444;-87
2023/12/25 01:20:13;;;;;;;136.93;131.13;;;;;;;;;;5115080;28;20796;-87
2023/12/25 01:22:40;;;;;;;146.02;139.73;;;;;;;;;;5115408;28;20457;-87
2023/12/25 01:25:09;;;;;;;128.18;122.60;;;;;;;;;;5115122;28;20408;-87
2023/12/25 01:27:39;;;;;;;140.20;134.27;;;;;;;;;;5115189;28;20396;-87
2023/12/25 01:30:06;;;;;;;146.43;140.83;;;;;;;;;;5114831;28;20412;-87
2023/12/25 01:32:34;;;;;;;139.57;133.88;;;;;;;;;;5101837;28;20430;-87
2023/12/25 01:35:00;;;;;;;140.18;134.80;;;;;;;;;;5094033;28;20984;-87
2023/12/25 01:37:27;;;;;;;133.30;127.80;;;;;;;;;;5094392;28;20437;-87
2023/12/25 01:39:53;;;;;;;145.18;139.55;;;;;;;;;;5113154;28;20400;-87
2023/12/25 01:42:21;;;;;;;141.23;135.77;;;;;;;;;;5115072;28;20396;-87
2023/12/25 01:44:48;;;;;;;164.23;158.18;;;;;;;;;;5114741;28;20431;-87
2023/12/25 01:47:18;;;;;;;140.80;135.15;;;;;;;;;;5113967;28;20805;-87
2023/12/25 01:49:46;;;;;;;149.80;143.90;;;;;;;;;;5116410;28;20416;-87
2023/12/25 01:52:13;;;;;;;150.68;144.23;;;;;;;;;;5118345;28;20799;-87
2023/12/25 01:54:40;;;;;;;135.13;129.15;;;;;;;;;;5101719;28;20444;-88
2023/12/25 01:57:07;;;;;;;155.93;149.73;;;;;;;;;;5103373;28;20406;-87
2023/12/25 01:59:33;;;;;;;136.98;131.32;;;;;;;;;;5121219;28;20473;-88
2023/12/25 02:02:00;;;;;;;144.13;138.47;;;;;;;;;;5111689;28;20942;-87
2023/12/25 02:04:27;;;;;;;152.60;146.13;;;;;;;;;;5106815;28;20900;-87
2023/12/25 02:06:56;;;;;;;163.93;157.57;;;;;;;;;;5116541;28;20468;-87
2023/12/25 02:09:22;;;;;;;148.18;142.05;;;;;;;;;;5114596;28;20897;-87
2023/12/25 02:11:49;;;;;;;130.87;125.10;;;;;;;;;;5103177;28;20459;-87
2023/12/25 02:14:15;;;;;;;147.23;140.82;;;;;;;;;;5093311;28;20437;-87
2023/12/25 02:16:42;;;;;;;135.73;129.38;;;;;;;;;;5093874;28;20478;-87
2023/12/25 02:19:13;;;;;;;144.07;137.40;;;;;;;;;;5093635;28;20398;-87
2023/12/25 02:21:41;;;;;;;144.93;138.48;;;;;;;;;;5111179;28;20432;-88
2023/12/25 02:24:10;;;;;;;136.63;130.13;;;;;;;;;;5114052;28;20403;-88
2023/12/25 02:26:38;;;;;;;143.77;136.90;;;;;;;;;;5113992;28;20420;-87
2023/12/25 02:29:04;;;;;;;146.60;139.38;;;;;;;;;;5113991;28;20800;-87
2023/12/25 02:31:31;;;;;;;146.35;138.77;;;;;;;;;;5113890;28;20409;-88
2023/12/25 02:33:57;;;;;;;169.80;160.70;;;;;;;;;;5113957;28;20496;-88
2023/12/25 02:36:24;;;;;;;146.48;138.02;;;;;;;;;;5107920;28;20486;-87
2023/12/25 02:38:50;;;;;;;179.18;168.35;;;;;;;;;;5092587;28;20402;-87
2023/12/25 02:41:16;;;;;;;180.70;171.40;;;;;;;;;;5093168;28;20479;-88
2023/12/25 02:43:44;;;;;;;148.27;138.40;;;;;;;;;;5092860;28;20417;-88
2023/12/25 02:46:11;;;;;;;168.77;159.30;;;;;;;;;;5092970;28;20786;-88
2023/12/25 02:48:37;;;;;;;165.57;155.47;;;;;;;;;;5105089;28;20408;-88
2023/12/25 02:51:04;;;;;;;170.40;157.68;;;;;;;;;;5113822;28;20396;-88
2023/12/25 02:53:31;;;;;;;159.40;147.63;;;;;;;;;;5113377;28;20400;-87
2023/12/25 02:55:57;;;;;;;158.88;148.30;;;;;;;;;;5113375;28;20487;-88
2023/12/25 02:58:24;;;;;;;154.18;146.40;;;;;;;;;;5113826;28;20808;-87
2023/12/25 03:00:52;;;;;;;141.00;134.20;;;;;;;;;;5113639;28;20392;-88
2023/12/25 03:03:18;;;;;;;147.20;139.45;;;;;;;;;;5113278;28;20469;-87
2023/12/25 03:05:45;;;;;;;154.50;146.88;;;;;;;;;;5113132;28;20414;-87
2023/12/25 03:08:11;;;;;;;177.63;170.13;;;;;;;;;;5112934;28;20408;-86
2023/12/25 03:10:38;;;;;;;150.90;144.13;;;;;;;;;;5113371;28;20441;-87
2023/12/25 03:13:05;;;;;;;159.70;153.10;;;;;;;;;;5113012;28;21227;-88
2023/12/25 03:15:32;;;;;;;153.80;147.35;;;;;;;;;;5112677;28;20976;-88
2023/12/25 03:18:00;;;;;;;150.57;143.98;;;;;;;;;;5113057;28;20466;-87
2023/12/25 03:20:27;;;;;;;149.50;143.35;;;;;;;;;;5112932;28;20393;-88
2023/12/25 03:22:53;;;;;;;164.15;157.52;;;;;;;;;;5112903;28;20408;-87
2023/12/25 03:25:20;;;;;;;150.77;144.43;;;;;;;;;;5113013;28;20454;-87
2023/12/25 03:27:46;;;;;;;143.93;137.60;;;;;;;;;;5113069;28;20396;-87
2023/12/25 03:30:13;;;;;;;147.48;141.25;;;;;;;;;;5112135;28;20416;-87
2023/12/25 03:32:39;;;;;;;144.32;137.70;;;;;;;;;;5112794;28;20414;-87
2023/12/25 03:35:08;;;;;;;141.77;135.40;;;;;;;;;;5112654;28;20412;-88
2023/12/25 03:37:34;;;;;;;149.35;142.32;;;;;;;;;;5112795;28;20434;-88
2023/12/25 03:40:01;;;;;;;157.75;147.60;;;;;;;;;;5112830;28;20437;-87
2023/12/25 03:42:28;;;;;;;160.07;150.88;;;;;;;;;;5112594;28;20401;-88
2023/12/25 03:44:54;;;;;;;144.25;134.45;;;;;;;;;;5112374;28;20866;-88
2023/12/25 03:47:21;;;;;;;165.15;154.73;;;;;;;;;;5112812;28;20457;-88
2023/12/25 03:49:47;;;;;;;163.33;153.13;;;;;;;;;;5112619;28;20799;-88
2023/12/25 03:52:15;;;;;;;153.88;142.55;;;;;;;;;;5112538;28;20432;-87
2023/12/25 03:54:42;;;;;;;162.03;149.40;;;;;;;;;;5112226;28;20841;-88
2023/12/25 03:57:10;;;;;;;156.35;144.55;;;;;;;;;;5112395;28;20396;-88
2023/12/25 03:59:37;;;;;;;151.32;140.00;;;;;;;;;;5112589;28;20492;-88
2023/12/25 04:02:03;;;;;;;138.43;129.07;;;;;;;;;;5112373;28;20457;-88
2023/12/25 04:04:30;;;;;;;156.40;145.82;;;;;;;;;;5112102;28;20392;-88
2023/12/25 04:06:56;;;;;;;165.85;154.82;;;;;;;;;;5111726;28;20412;-87
2023/12/25 04:09:24;;;;;;;150.80;140.38;;;;;;;;;;5112064;28;20485;-88
2023/12/25 04:11:51;;;;;;;146.23;136.68;;;;;;;;;;5112417;28;20873;-88
2023/12/25 04:14:16;;;;;;;159.40;149.52;;;;;;;;;;5111514;28;20428;-88
2023/12/25 04:16:43;;;;;;;153.23;143.90;;;;;;;;;;5111982;28;20464;-87
2023/12/25 04:19:09;;;;;;;149.18;139.93;;;;;;;;;;5112278;28;20392;-87
2023/12/25 04:21:36;;;;;;;137.25;128.48;;;;;;;;;;5100690;28;20410;-88
2023/12/25 04:24:02;;;;;;;148.93;140.70;;;;;;;;;;5091257;28;20965;-88
2023/12/25 04:26:30;;;;;;;145.35;137.50;;;;;;;;;;5091819;28;20406;-88
2023/12/25 04:28:56;;;;;;;135.27;128.38;;;;;;;;;;5091309;28;20451;-88
2023/12/25 04:31:23;;;;;;;138.60;131.82;;;;;;;;;;5091529;28;20455;-88
2023/12/25 04:33:49;;;;;;;127.60;120.93;;;;;;;;;;5091495;28;20872;-88
2023/12/25 04:36:16;;;;;;;144.45;137.93;;;;;;;;;;5091887;28;20422;-88
2023/12/25 04:38:42;;;;;;;150.07;143.50;;;;;;;;;;5105165;28;20412;-88
2023/12/25 04:41:09;;;;;;;162.10;154.13;;;;;;;;;;5111749;28;20942;-88
2023/12/25 04:43:38;;;;;;;139.50;132.60;;;;;;;;;;5113917;28;20449;-88
2023/12/25 04:46:04;;;;;;;143.98;136.52;;;;;;;;;;5116239;28;20426;-88
2023/12/25 04:48:31;;;;;;;154.70;146.93;;;;;;;;;;5116194;28;20523;-88
2023/12/25 04:50:59;;;;;;;158.30;150.73;;;;;;;;;;5100754;28;20429;-88
2023/12/25 04:53:26;;;;;;;160.10;152.50;;;;;;;;;;5094811;28;20822;-87
2023/12/25 04:55:52;;;;;;;132.60;125.93;;;;;;;;;;5095304;28;20422;-88
2023/12/25 04:58:20;;;;;;;138.80;132.10;;;;;;;;;;5094861;28;20398;-88
2023/12/25 05:00:47;;;;;;;144.75;137.93;;;;;;;;;;5096412;28;20465;-88
2023/12/25 05:03:14;;;;;;;146.85;139.63;;;;;;;;;;5097423;28;20741;-87
2023/12/25 05:05:40;;;;;;;155.85;148.63;;;;;;;;;;5094913;28;20462;-88
2023/12/25 05:08:07;;;;;;;150.40;143.02;;;;;;;;;;5114200;28;20411;-88
2023/12/25 05:10:33;;;;;;;138.77;131.52;;;;;;;;;;5115676;28;20396;-88
2023/12/25 05:13:00;;;;;;;145.33;138.57;;;;;;;;;;5115519;28;20481;-89
2023/12/25 05:15:26;;;;;;;146.43;139.32;;;;;;;;;;5115255;28;20471;-88
2023/12/25 05:17:54;;;;;;;154.43;146.70;;;;;;;;;;5115140;28;20449;-88
2023/12/25 05:20:21;;;;;;;138.15;130.32;;;;;;;;;;5115252;28;20404;-88
2023/12/25 05:22:47;;;;;;;164.25;156.00;;;;;;;;;;5114865;28;20909;-88
2023/12/25 05:25:14;;;;;;;155.32;146.35;;;;;;;;;;5115138;28;20404;-88
2023/12/25 05:27:40;;;;;;;156.97;149.20;;;;;;;;;;5115013;28;20911;-88
2023/12/25 05:30:08;;;;;;;161.07;153.25;;;;;;;;;;5115310;28;20388;-88
2023/12/25 05:32:35;;;;;;;167.55;160.10;;;;;;;;;;5114930;28;20929;-88
2023/12/25 05:35:04;;;;;;;148.50;141.07;;;;;;;;;;5115291;28;20832;-88
2023/12/25 05:37:31;;;;;;;144.38;136.50;;;;;;;;;;5114751;28;20490;-89
2023/12/25 05:39:57;;;;;;;135.40;128.77;;;;;;;;;;5114967;28;20400;-89
2023/12/25 05:42:24;;;;;;;151.18;144.30;;;;;;;;;;5114870;28;20403;-88
2023/12/25 05:44:50;;;;;;;156.10;149.38;;;;;;;;;;5114834;28;20469;-88
2023/12/25 05:47:17;;;;;;;156.35;149.60;;;;;;;;;;5114644;28;20404;-88
2023/12/25 05:49:43;;;;;;;139.40;133.20;;;;;;;;;;5114704;28;20465;-89
2023/12/25 05:52:11;;;;;;;160.47;153.20;;;;;;;;;;5114704;28;20393;-89
2023/12/25 05:54:37;;;;;;;158.98;152.18;;;;;;;;;;5114161;28;20392;-89
2023/12/25 05:57:04;;;;;;;152.80;146.50;;;;;;;;;;5115275;28;20392;-90
2023/12/25 05:59:31;;;;;;;147.98;141.50;;;;;;;;;;5114754;28;20395;-89
2023/12/25 06:01:58;;;;;;;146.20;140.02;;;;;;;;;;5114347;28;20405;-90
2023/12/25 06:04:24;;;;;;;174.35;166.85;;;;;;;;;;5114456;28;20461;-89
2023/12/25 06:06:53;;;;;;;145.13;138.77;;;;;;;;;;5114361;28;20392;-89
2023/12/25 06:09:21;;;;;;;159.30;152.32;;;;;;;;;;5114611;28;20458;-90
2023/12/25 06:11:48;;;;;;;157.32;149.60;;;;;;;;;;5114400;28;20444;-89
2023/12/25 06:14:14;;;;;;;159.05;152.07;;;;;;;;;;5114056;28;20408;-88
2023/12/25 06:16:41;;;;;;;156.60;148.88;;;;;;;;;;5113897;28;20412;-89
2023/12/25 06:19:08;;;;;;;152.02;145.00;;;;;;;;;;5114307;28;20457;-89
2023/12/25 06:21:35;;;;;;;154.75;147.57;;;;;;;;;;5114412;28;20449;-89
2023/12/25 06:24:01;;;;;;;134.30;126.57;;;;;;;;;;5113790;28;20461;-89
2023/12/25 06:26:29;;;;;;;137.05;130.18;;;;;;;;;;5098492;28;20404;-89
2023/12/25 06:28:56;;;;;;;145.43;138.77;;;;;;;;;;5093295;28;20402;-90
2023/12/25 06:31:22;;;;;;;161.55;153.13;;;;;;;;;;5093315;28;20406;-88
2023/12/25 06:33:49;;;;;;;160.05;152.30;;;;;;;;;;5093303;28;20459;-88
2023/12/25 06:36:15;;;;;;;153.17;146.07;;;;;;;;;;5093511;28;20453;-88
2023/12/25 06:38:42;;;;;;;174.02;164.93;;;;;;;;;;5093384;28;20442;-88
2023/12/25 06:41:10;;;;;;;164.60;155.18;;;;;;;;;;5100277;28;20795;-89
2023/12/25 06:43:38;;;;;;;147.60;140.63;;;;;;;;;;5113919;28;20496;-89
2023/12/25 06:46:05;;;;;;;164.00;157.10;;;;;;;;;;5113713;28;20396;-89
2023/12/25 06:48:31;;;;;;;148.97;142.50;;;;;;;;;;5113309;28;20401;-88
2023/12/25 06:50:58;;;;;;;140.88;134.25;;;;;;;;;;5113290;28;20417;-88
2023/12/25 06:53:24;;;;;;;144.50;138.65;;;;;;;;;;5113481;28;20528;-88
2023/12/25 06:55:51;;;;;;;153.38;145.70;;;;;;;;;;5113254;28;20544;-89
2023/12/25 06:58:17;;;;;;;136.57;129.70;;;;;;;;;;5114167;28;20396;-88
2023/12/25 07:00:45;;;;;;;136.40;130.93;;;;;;;;;;5117937;28;20393;-89
2023/12/25 07:03:12;;;;;;;147.50;141.05;;;;;;;;;;5113698;28;20436;-90
2023/12/25 07:05:40;;;;;;;141.35;134.60;;;;;;;;;;5112558;28;20400;-89
2023/12/25 07:08:07;;;;;;;147.23;140.85;;;;;;;;;;5113176;28;20400;-88
2023/12/25 07:10:33;;;;;;;145.03;139.77;;;;;;;;;;5113063;28;20469;-89
2023/12/25 07:13:00;;;;;;;140.85;133.82;;;;;;;;;;5112642;28;20420;-89
2023/12/25 07:15:28;;;;;;;150.18;142.57;;;;;;;;;;5112681;28;20497;-88
2023/12/25 07:17:55;;;;;;;143.23;135.50;;;;;;;;;;5112917;28;20408;-89
2023/12/25 07:20:30;;;;;;;165.97;158.37;;;;;;;;;;5114923;28;20921;-89
2023/12/25 07:22:57;;;;;;;147.25;140.73;;;;;;;;;;5117376;28;20428;-88
2023/12/25 07:25:23;;;;;;;137.82;131.82;;;;;;;;;;5091313;28;20410;-88
2023/12/25 07:27:50;;;;;;;142.33;136.03;;;;;;;;;;5091153;28;20523;-88
2023/12/25 07:30:16;;;;;;;146.45;138.65;;;;;;;;;;5092248;28;20406;-89
2023/12/25 07:32:43;;;;;;;161.38;152.93;;;;;;;;;;5092090;28;20902;-89
2023/12/25 07:35:11;;;;;;;156.37;148.60;;;;;;;;;;5092457;28;20507;-88
2023/12/25 07:37:37;;;;;;;158.07;149.63;;;;;;;;;;5092371;28;20815;-89
2023/12/25 07:40:04;;;;;;;164.67;156.20;;;;;;;;;;5092361;28;20403;-88
2023/12/25 07:42:31;;;;;;;165.23;156.40;;;;;;;;;;5101844;28;20408;-89
2023/12/25 07:44:57;;;;;;;164.30;156.80;;;;;;;;;;5111883;28;20408;-88
2023/12/25 07:47:24;;;;;;;169.75;161.95;;;;;;;;;;5112363;28;20874;-88
2023/12/25 07:49:51;;;;;;;175.03;166.60;;;;;;;;;;5112941;28;20392;-89
2023/12/25 07:52:19;;;;;;;159.82;152.02;;;;;;;;;;5112065;28;20813;-88
2023/12/25 07:54:45;;;;;;;186.03;176.47;;;;;;;;;;5112101;28;20808;-89
2023/12/25 07:57:11;;;;;;;179.05;170.68;;;;;;;;;;5112140;28;20496;-88
2023/12/25 07:59:38;;;;;;;182.82;173.77;;;;;;;;;;5105668;28;20412;-89
2023/12/25 08:02:05;;;;;;;188.30;178.40;;;;;;;;;;5113268;28;20907;-87
2023/12/25 08:04:31;;;;;;;169.98;161.88;;;;;;;;;;5108932;28;20392;-86
2023/12/25 08:06:57;;;;;;;182.45;174.40;;;;;;;;;;5111727;28;20400;-87
2023/12/25 08:09:26;;;;;;;169.55;160.55;;;;;;;;;;5113034;28;20400;-89
2023/12/25 08:11:52;;;;;;;169.77;159.00;;;;;;;;;;5114634;28;20491;-89
2023/12/25 08:14:19;;;;;;;194.53;184.63;;;;;;;;;;5097816;28;21091;-89
2023/12/25 08:16:45;;;;;;;173.50;163.15;;;;;;;;;;5097527;28;20434;-91
2023/12/25 08:19:12;;;;;;;194.15;182.82;;;;;;;;;;5129878;28;20400;-89
2023/12/25 08:21:38;;;;;;;200.18;189.00;;;;;;;;;;5114800;28;20426;-88
2023/12/25 08:24:05;;;;;;;193.25;181.73;;;;;;;;;;5117674;28;20430;-89
2023/12/25 08:26:33;;;;;;;204.05;192.68;;;;;;;;;;5116952;28;20412;-88
2023/12/25 08:28:59;;;;;;;189.63;179.38;;;;;;;;;;5123828;27;20418;-88
2023/12/25 08:31:26;;;;;;;196.25;183.73;;;;;;;;;;5112742;28;20394;-90
2023/12/25 08:33:52;;;;;;;198.23;187.13;;;;;;;;;;5098654;28;20760;-89
2023/12/25 08:36:19;;;;;;;197.85;186.85;;;;;;;;;;5098481;28;20423;-89
2023/12/25 08:38:45;;;;;;;218.52;206.52;;;;;;;;;;5101699;28;20420;-91
2023/12/25 08:41:12;;;;;;;191.03;181.93;;;;;;;;;;5100495;28;20431;-88
2023/12/25 08:43:40;;;;;;;206.45;195.00;;;;;;;;;;5097218;28;20459;-89
2023/12/25 08:46:06;;;;;;;207.00;196.40;;;;;;;;;;5097570;28;20401;-89
2023/12/25 08:48:33;;;;;;;213.45;203.23;;;;;;;;;;5097542;28;20409;-89
2023/12/25 08:50:59;;;;;;;213.55;203.85;;;;;;;;;;5097622;28;20394;-89
2023/12/25 08:53:26;;;;;;;211.98;201.68;;;;;;;;;;5103719;28;20404;-89
2023/12/25 08:55:52;;;;;;;224.93;213.63;;;;;;;;;;5116865;28;20827;-89
2023/12/25 08:58:19;;;;;;;209.73;198.18;;;;;;;;;;5107251;28;20481;-91
2023/12/25 09:00:47;;;;;;;203.77;192.65;;;;;;;;;;5107781;28;20392;-89
2023/12/25 09:03:13;;;;;;;198.60;188.32;;;;;;;;;;5107552;28;20438;-89
2023/12/25 09:05:40;;;;;;;228.93;218.03;;;;;;;;;;5110700;28;20972;-89
2023/12/25 09:08:07;;;;;;;185.65;175.73;;;;;;;;;;5114982;28;20412;-89
2023/12/25 09:10:35;;;;;;;202.47;192.03;;;;;;;;;;5116093;28;20786;-89
2023/12/25 09:13:02;;;;;;;215.93;205.93;;;;;;;;;;5108961;28;20414;-89
2023/12/25 09:15:29;;;;;;;210.55;200.85;;;;;;;;;;5099792;28;20416;-90
2023/12/25 09:17:57;;;;;;;217.40;207.77;;;;;;;;;;5097084;28;20744;-89
2023/12/25 09:20:23;;;;;;;203.13;193.95;;;;;;;;;;5096750;28;20413;-89
2023/12/25 09:22:50;;;;;;;220.55;210.88;;;;;;;;;;5096845;28;20401;-89
2023/12/25 09:25:16;;;;;;;214.57;205.30;;;;;;;;;;5096777;28;20402;-89
2023/12/25 09:27:43;;;;;;;220.27;210.88;;;;;;;;;;5096624;28;20441;-89
2023/12/25 09:30:11;;;;;;;206.13;197.63;;;;;;;;;;5110360;28;20453;-89
2023/12/25 09:32:38;;;;;;;221.52;212.18;;;;;;;;;;5116624;28;20814;-89
2023/12/25 09:35:08;;;;;;;252.48;243.05;;;;;;;;;;5119721;28;20409;-88
2023/12/25 09:37:36;;;;;;;248.95;240.35;;;;;;;;;;5118713;28;20424;-88
2023/12/25 09:40:02;;;;;;;216.83;209.13;;;;;;;;;;5103442;28;20501;-89
2023/12/25 09:42:29;;;;;;;238.88;230.48;;;;;;;;;;5097605;28;20961;-89
2023/12/25 09:44:56;;;;;;;223.47;215.53;;;;;;;;;;5098838;28;20465;-89
2023/12/25 09:47:22;;;;;;;257.95;249.52;;;;;;;;;;5103786;28;20398;-89
2023/12/25 09:49:49;;;;;;;240.25;232.32;;;;;;;;;;5096188;28;20507;-89
2023/12/25 09:52:17;;;;;;;249.90;241.93;;;;;;;;;;5106668;28;20400;-90
2023/12/25 09:54:44;;;;;;;244.68;236.98;;;;;;;;;;5115621;28;20475;-91
2023/12/25 09:57:11;;;;;;;243.07;235.53;;;;;;;;;;5116412;28;20473;-90
2023/12/25 09:59:38;;;;;;;244.67;237.17;;;;;;;;;;5117093;28;20399;-91
2023/12/25 10:02:06;;;;;;;244.18;236.63;;;;;;;;;;5116214;28;20946;-91
2023/12/25 10:04:35;;;;;;;253.10;245.45;;;;;;;;;;5116512;28;20404;-90
2023/12/25 10:07:02;;;;;;;266.98;259.17;;;;;;;;;;5116118;28;20399;-91
2023/12/25 10:09:31;;;;;;;247.25;239.40;;;;;;;;;;5117034;28;20405;-91
2023/12/25 10:11:57;;;;;;;250.82;242.80;;;;;;;;;;5117584;28;20422;-90
2023/12/25 10:14:24;;;;;;;227.27;220.03;;;;;;;;;;5116673;28;20400;-90
2023/12/25 10:16:56;;;;;;;268.27;259.80;;;;;;;;;;5116213;28;20855;-90
2023/12/25 10:19:22;;;;;;;246.68;237.85;;;;;;;;;;5116267;28;20420;-90
2023/12/25 10:21:50;;;;;;;246.05;236.95;;;;;;;;;;5116449;28;20384;-90
2023/12/25 10:24:16;;;;;;;255.95;246.50;;;;;;;;;;5116067;28;20459;-90
2023/12/25 10:26:45;;;;;;;247.77;238.70;;;;;;;;;;5116645;28;20739;-90
2023/12/25 10:29:12;;;;;;;240.20;232.23;;;;;;;;;;5116387;28;20469;-90
2023/12/25 10:31:39;;;;;;;256.85;247.65;;;;;;;;;;5116451;28;20398;-90
2023/12/25 10:34:06;;;;;;;245.00;236.13;;;;;;;;;;5115854;28;20453;-91
2023/12/25 10:36:33;;;;;;;233.03;224.83;;;;;;;;;;5116199;28;20423;-89
2023/12/25 10:38:59;;;;;;;232.48;224.30;;;;;;;;;;5115659;28;20404;-90
2023/12/25 10:41:27;;;;;;;246.35;237.88;;;;;;;;;;5115997;28;20874;-90
2023/12/25 10:43:55;;;;;;;238.73;230.52;;;;;;;;;;5115729;28;20400;-90
2023/12/25 10:46:23;;;;;;;260.10;251.43;;;;;;;;;;5114775;28;20420;-90
2023/12/25 10:48:50;;;;;;;230.17;221.77;;;;;;;;;;5114665;28;20926;-89
2023/12/25 10:51:21;;;;;;;258.17;249.07;;;;;;;;;;5114338;28;20971;-90
2023/12/25 10:53:47;;;;;;;237.35;228.95;;;;;;;;;;5114063;28;20408;-90
2023/12/25 10:56:14;;;;;;;257.23;248.77;;;;;;;;;;5113799;28;20403;-89
2023/12/25 10:58:41;;;;;;;248.35;239.93;;;;;;;;;;5114274;28;20874;-89
2023/12/25 11:01:09;;;;;;;246.52;238.10;;;;;;;;;;5114306;28;20396;-90
2023/12/25 11:03:35;;;;;;;243.37;235.23;;;;;;;;;;5114430;28;20796;-90
2023/12/25 11:06:04;;;;;;;249.30;241.02;;;;;;;;;;5114161;28;20809;-90
2023/12/25 11:08:31;;;;;;;240.03;232.50;;;;;;;;;;5114478;28;20412;-90
2023/12/25 11:10:57;;;;;;;246.35;238.55;;;;;;;;;;5114394;28;20401;-90
2023/12/25 11:13:25;;;;;;;237.53;230.03;;;;;;;;;;5114068;28;20404;-91
2023/12/25 11:15:51;;;;;;;271.00;262.52;;;;;;;;;;5114279;28;20435;-89
2023/12/25 11:18:19;;;;;;;251.23;243.37;;;;;;;;;;5113576;28;20424;-89
2023/12/25 11:21:01;;;;;;;253.98;245.80;;;;;;;;;;5113742;28;20392;-89
2023/12/25 11:23:29;;;;;;;270.58;262.20;;;;;;;;;;5113627;28;20995;-90
2023/12/25 11:25:56;;;;;;;257.60;249.20;;;;;;;;;;5114121;28;20392;-90
2023/12/25 11:28:22;;;;;;;273.92;265.40;;;;;;;;;;5094139;28;20474;-90
2023/12/25 11:30:49;;;;;;;265.40;257.27;;;;;;;;;;5093838;28;20397;-90
2023/12/25 11:33:19;;;;;;;265.85;257.58;;;;;;;;;;5093178;28;20410;-90
2023/12/25 11:35:47;;;;;;;269.60;261.23;;;;;;;;;;5093224;28;20799;-90
2023/12/25 11:38:29;;;;;;;263.20;255.03;;;;;;;;;;5093315;28;20493;-90
2023/12/25 11:41:01;;;;;;;287.65;279.15;;;;;;;;;;5090394;28;20441;-90
2023/12/25 11:43:30;;;;;;;252.85;245.05;;;;;;;;;;5093525;28;20410;-91
2023/12/25 11:45:57;;;;;;;292.25;283.42;;;;;;;;;;5093286;28;20409;-90
2023/12/25 11:48:24;;;;;;;277.70;269.02;;;;;;;;;;5092862;28;20436;-89
2023/12/25 11:50:59;;;;;;;264.53;255.80;;;;;;;;;;5092800;28;20486;-90
2023/12/25 11:53:35;;;;;;;279.85;270.48;;;;;;;;;;5092469;28;20410;-90
2023/12/25 11:56:02;;;;;;;278.10;269.10;;;;;;;;;;5093106;28;20437;-90
2023/12/25 11:58:30;;;;;;;274.52;265.58;;;;;;;;;;5092664;28;20474;-90
2023/12/25 12:00:56;;;;;;;288.20;279.40;;;;;;;;;;5092504;28;20934;-90
2023/12/25 12:03:23;;;;;;;270.55;262.35;;;;;;;;;;5092875;28;20435;-90
2023/12/25 12:05:49;;;;;;;279.02;270.42;;;;;;;;;;5092785;28;20793;-90
2023/12/25 12:08:17;;;;;;;274.88;266.52;;;;;;;;;;5092837;28;20398;-90
2023/12/25 12:10:44;;;;;;;270.60;262.33;;;;;;;;;;5092546;28;20455;-90
2023/12/25 12:13:12;;;;;;;269.60;261.23;;;;;;;;;;5092726;28;20421;-90
2023/12/25 12:15:38;;;;;;;279.83;271.63;;;;;;;;;;5092554;28;20414;-90
2023/12/25 12:18:05;;;;;;;287.73;279.30;;;;;;;;;;5092432;28;20425;-89
2023/12/25 12:20:31;;;;;;;267.97;259.70;;;;;;;;;;5092782;28;20803;-90
2023/12/25 12:22:58;;;;;;;272.92;264.63;;;;;;;;;;5092575;28;20394;-89
2023/12/25 12:25:29;;;;;;;272.55;264.30;;;;;;;;;;5092363;28;20553;-91
2023/12/25 12:27:57;;;;;;;281.75;273.27;;;;;;;;;;5092706;28;20455;-90
2023/12/25 12:30:24;;;;;;;294.45;285.73;;;;;;;;;;5093120;28;20452;-91
2023/12/25 12:32:51;;;;;;;257.73;250.00;;;;;;;;;;5092806;28;20404;-90
2023/12/25 12:35:17;;;;;;;307.20;298.30;;;;;;;;;;5092687;28;20398;-90
2023/12/25 12:37:44;;;;;;;303.48;294.73;;;;;;;;;;5092700;28;20504;-91
2023/12/25 12:40:11;;;;;;;283.40;275.03;;;;;;;;;;5092847;28;20489;-90
2023/12/25 12:42:39;;;;;;;297.45;288.65;;;;;;;;;;5092483;28;20425;-91
2023/12/25 12:45:06;;;;;;;296.03;287.07;;;;;;;;;;5094219;28;20898;-91
2023/12/25 12:47:33;;;;;;;289.50;281.20;;;;;;;;;;5112571;28;20442;-91
2023/12/25 12:50:01;;;;;;;291.05;282.33;;;;;;;;;;5113062;28;20396;-91
2023/12/25 12:52:27;;;;;;;325.80;316.33;;;;;;;;;;5112352;28;20778;-89
2023/12/25 12:54:54;;;;;;;291.63;282.67;;;;;;;;;;5112954;28;20789;-90
2023/12/25 12:57:21;;;;;;;304.15;295.20;;;;;;;;;;5113021;28;20416;-91
2023/12/25 12:59:50;;;;;;;222.93;215.75;;;;;;;;;;5114411;28;20063;-90
2023/12/25 13:02:16;;;;;;;203.50;196.48;;;;;;;;;;5114451;28;20051;-91
2023/12/25 13:04:43;;;;;;;;;;;;;;;;;;5116568;28;20081;-90
2023/12/25 13:07:10;;;;;;;164.05;158.27;;;;;;;;;;5117591;28;20545;-91
2023/12/25 13:09:37;;;;;;;278.00;269.33;;;;;;;;;;5116247;28;20415;-90
2023/12/25 13:12:03;;;;;;;;;;;;;;;;;;5118271;28;20052;-90
2023/12/25 13:14:30;;;;;;;;;;;;;;;;;;5119137;28;19919;-91
2023/12/25 13:16:56;;;;;;;;;;;;;;;;;;5118521;28;19927;-92
2023/12/25 13:19:22;;;;;;;;;;;;;;;;;;5117896;28;20359;-90
2023/12/25 13:21:48;;;;;;;;;;;;;;;;;;5117762;28;19927;-91
2023/12/25 13:24:15;;;;;;;;;;;;;;;;;;5118092;28;19920;-90
2023/12/25 13:26:41;;;;;;;;;;;;;;;;;;5117499;28;19964;-90
2023/12/25 13:29:08;;;;;;;;;;;;;;;;;;5117316;28;19920;-90
2023/12/25 13:31:35;;;;;;;;;;;;;;;;;;5117560;28;20271;-91
2023/12/25 13:34:01;;;;;;;;;;;;;;;;;;5117326;28;19924;-91
2023/12/25 13:36:27;;;;;;;;;;;;;;;;;;5117836;28;19948;-91
2023/12/25 13:38:54;;;;;;;;;;;;;;;;;;5117565;28;19934;-91
2023/12/25 13:41:21;;;;;;;;;;;;;;;;;;5117555;28;20293;-90
2023/12/25 13:43:48;;;;;;;;;;;;;;;;;;5117538;28;19920;-91
2023/12/25 13:46:14;;;;;;;;;;;;;;;;;;5109755;28;19920;-91
2023/12/25 13:48:41;;;;;;;;;;;;;;;;;;5097040;28;19927;-90
2023/12/25 13:51:07;;;;;;;;;;;;;;;;;;5096626;28;19951;-90
2023/12/25 13:53:34;;;;;;;;;;;;;;;;;;5096757;28;19978;-89
2023/12/25 13:56:00;;;;;;;;;;;;;;;;;;5096410;28;19920;-91
2023/12/25 13:58:26;;;;;;;;;;;;;;;;;;5096877;28;19920;-91
2023/12/25 14:00:52;;;;;;;;;;;;;;;;;;5097174;28;19930;-90